createdAt,value
2023-01-25T00:00:41.214Z,101119.91
2023-01-25T00:04:53.827Z,101132.13
2023-01-25T00:09:06.206Z,101129.66
2023-01-25T00:13:18.727Z,101118.09
2023-01-25T00:17:31.125Z,101125.59
2023-01-25T00:21:43.780Z,101131.59
2023-01-25T00:25:59.318Z,101136.75
2023-01-25T00:30:12.053Z,101134.81
2023-01-25T00:34:24.404Z,101146.88
2023-01-25T00:38:39.066Z,101143.28
2023-01-25T00:42:51.413Z,101132.97
2023-01-25T00:47:08.243Z,101126.09
2023-01-25T00:51:20.677Z,101135.69
2023-01-25T00:55:34.476Z,101123.09
2023-01-25T00:59:47.805Z,101128.59
2023-01-25T01:04:00.562Z,101120.00
2023-01-25T01:08:18.268Z,101109.94
2023-01-25T01:12:30.776Z,101103.59
2023-01-25T01:16:43.270Z,101099.84
2023-01-25T01:20:56.104Z,101106.63
2023-01-25T01:25:09.576Z,101106.56
2023-01-25T01:29:22.672Z,101095.47
2023-01-25T01:33:36.264Z,101087.16
2023-01-25T01:37:48.703Z,101089.03
2023-01-25T01:42:02.441Z,101087.91
2023-01-25T01:46:25.655Z,101086.59
2023-01-25T01:50:38.267Z,101081.78
2023-01-25T01:55:03.955Z,101074.06
2023-01-25T01:59:25.627Z,101073.78
2023-01-25T02:03:41.869Z,101064.28
2023-01-25T02:07:56.380Z,101068.56
2023-01-25T02:12:10.888Z,101063.66
2023-01-25T02:16:26.647Z,101054.16
2023-01-25T02:20:42.697Z,101055.72
2023-01-25T02:25:19.143Z,101060.06
2023-01-25T02:29:32.878Z,101057.00
2023-01-25T02:33:46.226Z,101046.19
2023-01-25T02:37:58.471Z,101044.81
2023-01-25T02:42:10.614Z,101046.50
2023-01-25T02:46:36.821Z,101039.09
2023-01-25T02:50:49.211Z,101040.03
2023-01-25T02:55:03.495Z,101025.88
2023-01-25T02:59:17.148Z,101019.66
2023-01-25T03:03:33.266Z,101027.50
2023-01-25T03:07:48.745Z,101020.38
2023-01-25T03:12:02.174Z,101014.09
2023-01-25T03:16:16.160Z,101009.94
2023-01-25T03:20:31.176Z,101013.09
2023-01-25T03:24:43.420Z,101010.41
2023-01-25T03:28:57.105Z,101002.50
2023-01-25T03:33:13.440Z,100993.78
2023-01-25T03:37:40.670Z,100991.31
2023-01-25T03:41:56.483Z,100977.75
2023-01-25T03:46:10.840Z,100983.25
2023-01-25T03:50:24.770Z,100977.44
2023-01-25T03:54:39.543Z,100965.47
2023-01-25T03:58:53.951Z,100962.84
2023-01-25T04:03:07.582Z,100961.00
2023-01-25T04:07:20.692Z,100956.28
2023-01-25T04:11:33.585Z,100960.06
2023-01-25T04:15:45.907Z,100953.50
2023-01-25T04:20:10.080Z,100953.78
2023-01-25T04:24:25.473Z,100957.19
2023-01-25T04:28:37.686Z,100954.22
2023-01-25T04:32:51.054Z,100956.84
2023-01-25T04:37:08.344Z,100958.41
2023-01-25T04:41:30.981Z,100954.94
2023-01-25T04:45:43.688Z,100950.63
2023-01-25T04:50:04.604Z,100949.66
2023-01-25T04:54:18.206Z,100943.66
2023-01-25T04:58:30.401Z,100943.03
2023-01-25T05:02:43.176Z,100931.47
2023-01-25T05:06:55.415Z,100938.91
2023-01-25T05:11:07.633Z,100929.53
2023-01-25T05:15:34.268Z,100927.97
2023-01-25T05:19:47.868Z,100928.88
2023-01-25T05:24:02.868Z,100934.25
2023-01-25T05:28:16.800Z,100925.44
2023-01-25T05:32:50.537Z,100929.78
2023-01-25T05:37:04.206Z,100924.84
2023-01-25T05:41:16.704Z,100914.97
2023-01-25T05:45:30.404Z,100907.81
2023-01-25T05:49:44.180Z,100905.13
2023-01-25T05:54:03.139Z,100899.94
2023-01-25T05:58:15.426Z,100900.25
2023-01-25T06:02:28.579Z,100903.13
2023-01-25T06:06:40.909Z,100898.88
2023-01-25T06:10:53.140Z,100907.16
2023-01-25T06:15:05.834Z,100899.34
2023-01-25T06:19:18.206Z,100890.66
2023-01-25T06:23:50.520Z,100907.28
2023-01-25T06:28:02.809Z,100898.63
2023-01-25T06:32:15.002Z,100896.44
2023-01-25T06:36:27.261Z,100875.13
2023-01-25T06:40:39.465Z,100882.41
2023-01-25T06:44:51.591Z,100875.75
2023-01-25T06:49:03.806Z,100884.16
2023-01-25T06:53:15.983Z,100878.84
2023-01-25T06:57:29.608Z,100866.50
2023-01-25T07:01:41.871Z,100864.94
2023-01-25T07:06:05.668Z,100867.22
2023-01-25T07:10:17.922Z,100858.56
2023-01-25T07:14:30.116Z,100854.88
2023-01-25T07:18:42.790Z,100852.16
2023-01-25T07:23:06.117Z,100843.41
2023-01-25T07:27:18.380Z,100837.31
2023-01-25T07:31:30.925Z,100835.66
2023-01-25T07:35:43.199Z,100831.25
2023-01-25T07:39:58.307Z,100838.22
2023-01-25T07:44:10.885Z,100828.56
2023-01-25T07:48:26.907Z,100827.72
2023-01-25T07:52:41.996Z,100833.88
2023-01-25T07:56:54.265Z,100826.81
2023-01-25T08:01:17.259Z,100831.22
2023-01-25T08:05:29.548Z,100828.50
2023-01-25T08:09:42.808Z,100836.47
2023-01-25T08:13:55.606Z,100825.84
2023-01-25T08:18:07.781Z,100831.06
2023-01-25T08:22:19.979Z,100820.47
2023-01-25T08:26:32.780Z,100822.31
2023-01-25T08:30:56.387Z,100822.25
2023-01-25T08:35:10.032Z,100814.94
2023-01-25T08:39:22.628Z,100830.16
2023-01-25T08:43:35.582Z,100822.09
2023-01-25T08:47:47.783Z,100828.91
2023-01-25T08:51:59.921Z,100829.53
2023-01-25T08:56:15.176Z,100834.25
2023-01-25T09:00:27.273Z,100825.34
2023-01-25T09:04:39.631Z,100825.91
2023-01-25T09:08:51.828Z,100809.84
2023-01-25T09:13:04.300Z,100815.09
2023-01-25T09:17:16.907Z,100809.66
2023-01-25T09:21:30.204Z,100804.34
2023-01-25T09:25:42.353Z,100803.34
2023-01-25T09:30:02.185Z,100787.19
2023-01-25T09:34:26.800Z,100783.66
2023-01-25T09:38:39.527Z,100789.88
2023-01-25T09:43:21.731Z,100779.50
2023-01-25T09:47:45.978Z,100775.97
2023-01-25T09:52:24.496Z,100779.34
2023-01-25T09:56:38.631Z,100777.44
2023-01-25T10:00:58.792Z,100777.91
2023-01-25T10:05:23.137Z,100771.59
2023-01-25T10:10:06.812Z,100767.94
2023-01-25T10:14:21.873Z,100762.03
2023-01-25T10:18:52.033Z,100762.06
2023-01-25T10:23:27.298Z,100759.13
2023-01-25T10:27:45.384Z,100760.03
2023-01-25T10:32:35.799Z,100751.84
2023-01-25T10:37:04.982Z,100752.31
2023-01-25T10:41:39.196Z,100750.50
2023-01-25T10:45:52.243Z,100744.22
2023-01-25T10:50:04.915Z,100751.25
2023-01-25T10:54:17.275Z,100743.19
2023-01-25T10:58:32.383Z,100746.06
2023-01-25T11:02:46.714Z,100743.53
2023-01-25T11:07:00.051Z,100752.16
2023-01-25T11:11:24.595Z,100740.75
2023-01-25T11:15:36.984Z,100744.78
2023-01-25T11:19:49.236Z,100740.38
2023-01-25T11:24:09.146Z,100733.13
2023-01-25T11:28:24.416Z,100737.78
2023-01-25T11:32:39.640Z,100725.78
2023-01-25T11:37:34.436Z,100731.78
2023-01-25T11:42:12.838Z,100723.22
2023-01-25T11:46:43.936Z,100724.28
2023-01-25T11:51:01.734Z,100719.81
2023-01-25T11:55:31.996Z,100703.41
2023-01-25T11:59:48.554Z,100699.25
2023-01-25T12:04:33.045Z,100688.56
2023-01-25T12:09:01.154Z,100686.13
2023-01-25T12:13:39.586Z,100673.34
2023-01-25T12:18:11.545Z,100662.97
2023-01-25T12:22:46.452Z,100663.75
2023-01-25T12:27:07.647Z,100659.94
2023-01-25T12:31:23.692Z,100660.81
2023-01-25T12:35:45.208Z,100648.50
2023-01-25T12:40:14.547Z,100643.16
2023-01-25T12:44:35.946Z,100636.88
2023-01-25T12:48:53.617Z,100628.38
2023-01-25T12:53:12.154Z,100617.72
2023-01-25T12:57:45.223Z,100614.91
2023-01-25T13:02:30.653Z,100597.28
2023-01-25T13:07:13.788Z,100599.25
2023-01-25T13:11:43.829Z,100593.66
2023-01-25T13:15:56.674Z,100596.19
2023-01-25T13:20:44.786Z,100584.91
2023-01-25T13:25:11.976Z,100580.63
2023-01-25T13:29:35.080Z,100580.22
2023-01-25T13:33:47.491Z,100582.09
2023-01-25T13:38:24.917Z,100575.19
2023-01-25T13:42:39.795Z,100574.88
2023-01-25T13:46:51.988Z,100568.22
2023-01-25T13:51:10.521Z,100570.91
2023-01-25T13:55:22.693Z,100572.72
2023-01-25T13:59:34.939Z,100571.88
2023-01-25T14:03:53.345Z,100558.41
2023-01-25T14:08:13.717Z,100565.44
2023-01-25T14:12:40.803Z,100557.94
2023-01-25T14:17:21.419Z,100552.50
2023-01-25T14:21:34.748Z,100554.03
2023-01-25T14:25:51.487Z,100553.34
2023-01-25T14:30:06.968Z,100551.28
2023-01-25T14:34:20.714Z,100554.59
2023-01-25T14:38:38.333Z,100548.53
2023-01-25T14:42:53.195Z,100545.28
2023-01-25T14:47:33.547Z,100547.28
2023-01-25T14:51:47.841Z,100532.19
2023-01-25T14:56:00.374Z,100533.22
2023-01-25T15:00:23.266Z,100538.75
2023-01-25T15:04:36.114Z,100521.88
2023-01-25T15:08:49.880Z,100529.81
2023-01-25T15:13:17.410Z,100521.97
2023-01-25T15:17:47.618Z,100516.84
2023-01-25T15:22:01.165Z,100523.78
2023-01-25T15:26:30.781Z,100522.91
2023-01-25T15:30:43.364Z,100523.78
2023-01-25T15:34:55.953Z,100512.28
2023-01-25T15:39:18.642Z,100515.84
2023-01-25T15:43:31.997Z,100514.03
2023-01-25T15:47:44.319Z,100500.88
2023-01-25T15:51:58.315Z,100501.81
2023-01-25T15:56:17.108Z,100502.72
2023-01-25T16:00:29.477Z,100496.53
2023-01-25T16:04:42.565Z,100498.31
2023-01-25T16:08:55.295Z,100497.47
2023-01-25T16:13:13.933Z,100490.44
2023-01-25T16:17:30.818Z,100491.31
2023-01-25T16:21:44.989Z,100487.78
2023-01-25T16:25:57.562Z,100484.25
2023-01-25T16:30:18.954Z,100486.88
2023-01-25T16:34:31.556Z,100479.69
2023-01-25T16:38:44.661Z,100468.94
2023-01-25T16:42:57.486Z,100482.94
2023-01-25T16:47:14.836Z,100486.53
2023-01-25T16:51:29.071Z,100476.66
2023-01-25T16:55:41.591Z,100474.03
2023-01-25T16:59:56.763Z,100477.59
2023-01-25T17:04:09.377Z,100488.16
2023-01-25T17:08:21.763Z,100485.75
2023-01-25T17:12:34.224Z,100481.56
2023-01-25T17:16:51.907Z,100487.78
2023-01-25T17:21:07.316Z,100475.44
2023-01-25T17:25:22.693Z,100475.44
2023-01-25T17:29:35.177Z,100473.66
2023-01-25T17:33:48.395Z,100461.25
2023-01-25T17:38:03.556Z,100463.03
2023-01-25T17:42:16.188Z,100466.56
2023-01-25T17:46:33.520Z,100469.22
2023-01-25T17:50:46.254Z,100465.53
2023-01-25T17:55:00.708Z,100461.09
2023-01-25T17:59:13.034Z,100458.41
2023-01-25T18:03:25.525Z,100464.47
2023-01-25T18:07:39.265Z,100462.53
2023-01-25T18:11:51.775Z,100464.19
2023-01-25T18:16:08.124Z,100467.69
2023-01-25T18:20:22.026Z,100453.66
2023-01-25T18:24:36.686Z,100448.41
2023-01-25T18:28:52.027Z,100451.88
2023-01-25T18:33:05.997Z,100449.19
2023-01-25T18:37:21.364Z,100459.91
2023-01-25T18:41:33.930Z,100442.00
2023-01-25T18:45:53.601Z,100445.56
2023-01-25T18:50:07.579Z,100436.41
2023-01-25T18:54:20.026Z,100426.81
2023-01-25T18:58:34.486Z,100423.31
2023-01-25T19:02:47.127Z,100433.00
2023-01-25T19:07:01.827Z,100430.50
2023-01-25T19:11:17.464Z,100423.25
2023-01-25T19:15:30.963Z,100419.72
2023-01-25T19:19:45.405Z,100426.81
2023-01-25T19:23:58.000Z,100416.22
2023-01-25T19:28:10.445Z,100417.00
2023-01-25T19:32:22.784Z,100412.69
2023-01-25T19:36:37.595Z,100418.94
2023-01-25T19:40:50.879Z,100413.59
2023-01-25T19:45:04.940Z,100413.75
2023-01-25T19:49:18.550Z,100410.53
2023-01-25T19:53:30.940Z,100403.16
2023-01-25T19:57:43.359Z,100399.75
2023-01-25T20:01:55.921Z,100404.16
2023-01-25T20:06:09.856Z,100389.88
2023-01-25T20:10:22.384Z,100384.66
2023-01-25T20:14:35.891Z,100375.72
2023-01-25T20:18:49.457Z,100367.94
2023-01-25T20:23:01.842Z,100362.53
2023-01-25T20:27:14.245Z,100350.97
2023-01-25T20:31:34.079Z,100354.59
2023-01-25T20:35:46.698Z,100353.88
2023-01-25T20:40:03.994Z,100350.31
2023-01-25T20:44:18.246Z,100350.19
2023-01-25T20:48:36.650Z,100346.69
2023-01-25T20:52:49.102Z,100339.09
2023-01-25T20:57:01.556Z,100338.72
2023-01-25T21:01:16.340Z,100344.06
2023-01-25T21:05:28.767Z,100345.91
2023-01-25T21:09:42.916Z,100336.91
2023-01-25T21:13:55.592Z,100333.47
2023-01-25T21:18:08.104Z,100325.66
2023-01-25T21:22:21.287Z,100323.13
2023-01-25T21:26:36.138Z,100315.75
2023-01-25T21:30:48.850Z,100309.59
2023-01-25T21:35:01.297Z,100301.84
2023-01-25T21:39:13.802Z,100302.53
2023-01-25T21:43:26.158Z,100297.34
2023-01-25T21:47:38.628Z,100295.72
2023-01-25T21:51:53.151Z,100290.47
2023-01-25T21:56:05.692Z,100283.22
2023-01-25T22:00:18.559Z,100283.06
2023-01-25T22:04:36.208Z,100268.94
2023-01-25T22:08:48.727Z,100268.25
2023-01-25T22:13:01.161Z,100267.44
2023-01-25T22:17:14.680Z,100259.31
2023-01-25T22:21:30.973Z,100255.94
2023-01-25T22:25:43.886Z,100248.91
2023-01-25T22:29:56.234Z,100247.16
2023-01-25T22:34:11.507Z,100242.75
2023-01-25T22:38:23.877Z,100244.56
2023-01-25T22:42:36.171Z,100240.94
2023-01-25T22:46:50.824Z,100226.91
2023-01-25T22:51:10.613Z,100231.22
2023-01-25T22:55:22.969Z,100221.03
2023-01-25T22:59:35.916Z,100207.47
2023-01-25T23:03:49.250Z,100195.97
2023-01-25T23:08:05.220Z,100199.75
2023-01-25T23:12:18.400Z,100190.06
2023-01-25T23:16:31.246Z,100188.16
2023-01-25T23:20:44.713Z,100184.41
2023-01-25T23:24:59.884Z,100176.50
2023-01-25T23:29:13.008Z,100166.16
2023-01-25T23:33:26.811Z,100186.88
2023-01-25T23:37:39.175Z,100173.94
2023-01-25T23:41:52.648Z,100168.69
2023-01-25T23:46:08.194Z,100166.03
2023-01-25T23:50:20.423Z,100160.00
2023-01-25T23:54:33.776Z,100157.16
2023-01-25T23:58:47.924Z,100164.50
